sim
Sign-in with your pilot id or email,
or register
Callsign
Passwort

Schedule Details

Flight Number: OEO9036
Departure: Munich Airport (EDDM) at 05:30
Arrival: Bratislava M. R. Stefanik Airport (LZIB) at 06:40

Weather Information
Getting current METAR information for EDDM 310650Z VRB03KT CAVOK 12/06 Q1020 NOSIG
Getting current METAR information for LZIB 310630Z 33005KT 300V010 9999 -RA FEW025 BKN056 BKN075 12/06 Q1015 NOSIG

Schedule Frequency

Route Map